createdAt,value
2023-09-08T00:01:44.031Z,95829.09
2023-09-08T00:04:15.952Z,95825.28
2023-09-08T00:06:48.153Z,95824.09
2023-09-08T00:09:19.676Z,95822.94
2023-09-08T00:11:51.241Z,95825.31
2023-09-08T00:14:22.839Z,95825.72
2023-09-08T00:16:57.298Z,95826.13
2023-09-08T00:19:28.828Z,95832.31
2023-09-08T00:22:00.525Z,95827.38
2023-09-08T00:24:32.040Z,95820.47
2023-09-08T00:27:03.695Z,95817.78
2023-09-08T00:29:35.253Z,95817.03
2023-09-08T00:32:07.052Z,95818.16
2023-09-08T00:34:38.862Z,95817.81
2023-09-08T00:37:10.990Z,95818.59
2023-09-08T00:39:42.411Z,95819.75
2023-09-08T00:42:13.979Z,95812.06
2023-09-08T00:44:45.498Z,95820.53
2023-09-08T00:47:17.089Z,95824.00
2023-09-08T00:49:50.305Z,95817.13
2023-09-08T00:52:21.899Z,95823.25
2023-09-08T00:54:53.452Z,95824.03
2023-09-08T00:57:25.304Z,95820.97
2023-09-08T00:59:56.913Z,95817.56
2023-09-08T01:02:28.954Z,95814.50
2023-09-08T01:05:03.851Z,95820.63
2023-09-08T01:07:36.451Z,95811.81
2023-09-08T01:10:08.840Z,95817.22
2023-09-08T01:12:40.946Z,95808.75
2023-09-08T01:15:13.188Z,95818.75
2023-09-08T01:17:44.943Z,95817.22
2023-09-08T01:20:22.640Z,95815.31
2023-09-08T01:23:19.945Z,95814.94
2023-09-08T01:26:12.532Z,95815.72
2023-09-08T01:28:45.004Z,95815.34
2023-09-08T01:31:17.937Z,95815.31
2023-09-08T01:33:49.941Z,95811.09
2023-09-08T01:36:21.651Z,95811.88
2023-09-08T01:38:53.296Z,95804.59
2023-09-08T01:41:24.904Z,95809.56
2023-09-08T01:43:56.450Z,95806.88
2023-09-08T01:46:27.984Z,95815.34
2023-09-08T01:48:59.576Z,95814.19
2023-09-08T01:51:31.301Z,95800.75
2023-09-08T01:54:03.003Z,95809.97
2023-09-08T01:56:34.574Z,95802.69
2023-09-08T01:59:06.178Z,95809.59
2023-09-08T02:01:37.963Z,95808.06
2023-09-08T02:04:09.750Z,95805.75
2023-09-08T02:06:41.283Z,95796.19
2023-09-08T02:09:15.619Z,95800.41
2023-09-08T02:11:47.155Z,95794.25
2023-09-08T02:14:18.687Z,95801.56
2023-09-08T02:16:50.218Z,95804.63
2023-09-08T02:19:21.906Z,95804.22
2023-09-08T02:21:53.490Z,95796.94
2023-09-08T02:24:25.090Z,95794.66
2023-09-08T02:26:56.636Z,95795.03
2023-09-08T02:29:28.178Z,95801.94
2023-09-08T02:31:59.724Z,95803.06
2023-09-08T02:34:31.328Z,95796.97
2023-09-08T02:37:02.924Z,95801.94
2023-09-08T02:39:34.715Z,95801.56
2023-09-08T02:42:06.333Z,95798.84
2023-09-08T02:44:37.908Z,95795.81
2023-09-08T02:47:09.522Z,95796.56
2023-09-08T02:49:41.255Z,95789.66
2023-09-08T02:52:12.835Z,95793.50
2023-09-08T02:54:44.394Z,95786.97
2023-09-08T02:57:16.000Z,95791.19
2023-09-08T02:59:52.265Z,95792.31
2023-09-08T03:02:26.050Z,95795.78
2023-09-08T03:04:57.858Z,95801.16
2023-09-08T03:07:29.487Z,95801.91
2023-09-08T03:10:01.068Z,95793.09
2023-09-08T03:12:32.581Z,95798.47
2023-09-08T03:15:05.198Z,95799.97
2023-09-08T03:17:36.776Z,95804.59
2023-09-08T03:20:12.550Z,95790.03
2023-09-08T03:22:44.088Z,95795.38
2023-09-08T03:25:16.203Z,95795.03
2023-09-08T03:27:47.803Z,95785.78
2023-09-08T03:30:19.365Z,95788.88
2023-09-08T03:32:50.970Z,95787.34
2023-09-08T03:35:22.580Z,95798.84
2023-09-08T03:37:54.144Z,95795.38
2023-09-08T03:40:25.795Z,95793.44
2023-09-08T03:42:57.354Z,95800.75
2023-09-08T03:45:28.938Z,95801.50
2023-09-08T03:48:00.474Z,95803.03
2023-09-08T03:50:32.257Z,95804.19
2023-09-08T03:53:03.952Z,95806.50
2023-09-08T03:55:35.525Z,95801.84
2023-09-08T03:58:07.168Z,95801.44
2023-09-08T04:00:38.844Z,95801.03
2023-09-08T04:03:10.443Z,95798.75
2023-09-08T04:05:42.134Z,95797.97
2023-09-08T04:08:13.999Z,95802.19
2023-09-08T04:10:45.609Z,95801.78
2023-09-08T04:13:17.208Z,95802.94
2023-09-08T04:15:48.915Z,95810.22
2023-09-08T04:18:20.591Z,95804.09
2023-09-08T04:20:52.341Z,95799.50
2023-09-08T04:23:24.010Z,95800.66
2023-09-08T04:25:55.627Z,95797.56
2023-09-08T04:28:27.231Z,95794.91
2023-09-08T04:30:58.851Z,95792.59
2023-09-08T04:33:30.732Z,95794.88
2023-09-08T04:36:02.436Z,95795.28
2023-09-08T04:38:33.976Z,95795.66
2023-09-08T04:41:08.645Z,95801.00
2023-09-08T04:43:40.277Z,95802.53
2023-09-08T04:46:11.896Z,95801.00
2023-09-08T04:48:43.794Z,95815.56
2023-09-08T04:51:15.727Z,95813.63
2023-09-08T04:53:47.321Z,95811.72
2023-09-08T04:56:18.928Z,95809.41
2023-09-08T04:58:50.551Z,95809.41
2023-09-08T05:01:22.184Z,95812.84
2023-09-08T05:03:54.125Z,95825.88
2023-09-08T05:06:26.257Z,95809.00
2023-09-08T05:08:58.978Z,95809.03
2023-09-08T05:11:30.529Z,95804.81
2023-09-08T05:14:03.028Z,95808.28
2023-09-08T05:16:38.889Z,95814.78
2023-09-08T05:19:10.861Z,95817.09
2023-09-08T05:21:44.373Z,95826.69
2023-09-08T05:24:16.018Z,95820.94
2023-09-08T05:26:48.275Z,95816.38
2023-09-08T05:29:19.749Z,95823.69
2023-09-08T05:31:51.263Z,95820.25
2023-09-08T05:34:22.843Z,95821.41
2023-09-08T05:36:54.398Z,95821.44
2023-09-08T05:39:26.113Z,95824.53
2023-09-08T05:41:57.658Z,95823.00
2023-09-08T05:44:29.226Z,95833.75
2023-09-08T05:47:00.773Z,95830.66
2023-09-08T05:49:33.164Z,95832.22
2023-09-08T05:52:06.249Z,95830.72
2023-09-08T05:54:37.903Z,95832.25
2023-09-08T05:57:09.401Z,95834.16
2023-09-08T05:59:40.951Z,95846.81
2023-09-08T06:02:12.547Z,95838.03
2023-09-08T06:04:44.346Z,95843.78
2023-09-08T06:07:15.875Z,95845.31
2023-09-08T06:09:47.543Z,95844.91
2023-09-08T06:12:19.109Z,95838.75
2023-09-08T06:14:50.688Z,95849.91
2023-09-08T06:17:22.249Z,95843.38
2023-09-08T06:19:53.814Z,95851.81
2023-09-08T06:22:25.316Z,95850.28
2023-09-08T06:24:56.914Z,95849.47
2023-09-08T06:27:28.529Z,95852.91
2023-09-08T06:30:00.142Z,95842.91
2023-09-08T06:32:31.741Z,95850.94
2023-09-08T06:35:03.421Z,95850.53
2023-09-08T06:37:39.351Z,95844.75
2023-09-08T06:40:10.926Z,95850.50
2023-09-08T06:42:42.563Z,95860.09
2023-09-08T06:45:14.636Z,95861.97
2023-09-08T06:47:46.373Z,95861.56
2023-09-08T06:50:18.177Z,95868.50
2023-09-08T06:52:53.807Z,95858.09
2023-09-08T06:55:25.355Z,95854.19
2023-09-08T06:57:56.965Z,95849.56
2023-09-08T07:00:29.312Z,95847.63
2023-09-08T07:03:01.204Z,95848.34
2023-09-08T07:05:33.293Z,95851.38
2023-09-08T07:08:05.066Z,95849.03
2023-09-08T07:10:36.669Z,95856.69
2023-09-08T07:13:08.226Z,95855.94
2023-09-08T07:15:39.812Z,95854.69
2023-09-08T07:18:11.543Z,95858.13
2023-09-08T07:20:48.105Z,95860.78
2023-09-08T07:23:19.905Z,95862.66
2023-09-08T07:25:51.683Z,95859.59
2023-09-08T07:28:24.077Z,95859.09
2023-09-08T07:31:04.025Z,95864.03
2023-09-08T07:33:35.913Z,95850.88
2023-09-08T07:36:09.522Z,95858.50
2023-09-08T07:38:41.222Z,95846.09
2023-09-08T07:41:13.513Z,95855.25
2023-09-08T07:43:46.793Z,95858.78
2023-09-08T07:46:18.557Z,95861.00
2023-09-08T07:48:50.960Z,95857.75
2023-09-08T07:51:22.651Z,95860.88
2023-09-08T07:53:54.797Z,95860.31
2023-09-08T07:56:26.409Z,95860.59
2023-09-08T07:58:57.926Z,95856.25
2023-09-08T08:01:29.722Z,95853.09
2023-09-08T08:04:04.351Z,95862.63
2023-09-08T08:06:36.057Z,95860.66
2023-09-08T08:09:07.741Z,95862.09
2023-09-08T08:11:39.445Z,95865.81
2023-09-08T08:14:11.035Z,95868.78
2023-09-08T08:16:42.643Z,95855.22
2023-09-08T08:19:14.578Z,95865.13
2023-09-08T08:21:46.161Z,95865.47
2023-09-08T08:24:17.738Z,95852.03
2023-09-08T08:26:49.307Z,95844.59
2023-09-08T08:29:20.908Z,95840.94
2023-09-08T08:31:52.498Z,95853.91
2023-09-08T08:34:24.212Z,95846.97
2023-09-08T08:36:55.813Z,95851.03
2023-09-08T08:39:27.318Z,95853.84
2023-09-08T08:41:59.162Z,95847.41
2023-09-08T08:44:30.846Z,95854.59
2023-09-08T08:47:04.535Z,95851.13
2023-09-08T08:49:37.460Z,95838.81
2023-09-08T08:52:10.154Z,95842.59
2023-09-08T08:54:43.666Z,95845.34
2023-09-08T08:57:15.945Z,95847.41
2023-09-08T08:59:49.676Z,95852.06
2023-09-08T09:02:23.128Z,95842.56
2023-09-08T09:04:55.190Z,95840.47
2023-09-08T09:07:27.303Z,95843.91
2023-09-08T09:09:59.474Z,95844.94
2023-09-08T09:12:31.201Z,95845.28
2023-09-08T09:15:05.320Z,95834.03
2023-09-08T09:17:37.302Z,95836.16
2023-09-08T09:20:21.376Z,95830.50
2023-09-08T09:22:53.403Z,95832.66
2023-09-08T09:25:28.237Z,95831.94
2023-09-08T09:28:02.332Z,95827.25
2023-09-08T09:30:52.353Z,95828.41
2023-09-08T09:33:24.624Z,95830.06
2023-09-08T09:35:58.449Z,95831.72
2023-09-08T09:38:30.717Z,95828.03
2023-09-08T09:41:02.477Z,95830.13
2023-09-08T09:43:34.804Z,95828.09
2023-09-08T09:46:09.990Z,95825.59
2023-09-08T09:48:41.653Z,95818.53
2023-09-08T09:51:22.101Z,95816.47
2023-09-08T09:53:56.139Z,95816.81
2023-09-08T09:56:28.221Z,95815.25
2023-09-08T09:59:00.740Z,95811.25
2023-09-08T10:01:33.376Z,95807.75
2023-09-08T10:04:06.076Z,95806.31
2023-09-08T10:06:39.143Z,95805.63
2023-09-08T10:09:14.751Z,95800.63
2023-09-08T10:11:49.885Z,95802.72
2023-09-08T10:14:22.618Z,95796.13
2023-09-08T10:16:58.079Z,95800.78
2023-09-08T10:19:31.476Z,95789.06
2023-09-08T10:22:05.395Z,95804.25
2023-09-08T10:24:39.798Z,95800.59
2023-09-08T10:27:12.760Z,95797.91
2023-09-08T10:29:44.583Z,95789.59
2023-09-08T10:32:17.904Z,95791.03
2023-09-08T10:34:50.598Z,95788.88
2023-09-08T10:37:30.304Z,95795.09
2023-09-08T10:40:21.076Z,95793.34
2023-09-08T10:43:08.169Z,95793.09
2023-09-08T10:45:42.528Z,95789.78
2023-09-08T10:48:15.705Z,95797.50
2023-09-08T10:50:47.307Z,95797.47
2023-09-08T10:53:19.330Z,95797.72
2023-09-08T10:58:39.757Z,95789.50
2023-09-08T11:01:18.720Z,95786.50
2023-09-08T11:03:51.672Z,95786.78
2023-09-08T11:06:23.699Z,95787.56
2023-09-08T11:08:57.363Z,95789.97
2023-09-08T11:11:34.778Z,95793.47
2023-09-08T11:14:06.429Z,95792.72
2023-09-08T11:16:38.424Z,95792.81
2023-09-08T11:19:11.175Z,95794.94
2023-09-08T11:21:43.295Z,95793.84
2023-09-08T11:24:16.083Z,95799.34
2023-09-08T11:26:51.274Z,95789.16
2023-09-08T11:29:23.967Z,95801.78
2023-09-08T11:31:55.652Z,95790.84
2023-09-08T11:34:27.186Z,95794.03
2023-09-08T11:36:58.889Z,95796.75
2023-09-08T11:39:30.495Z,95789.31
2023-09-08T11:42:02.115Z,95788.53
2023-09-08T11:44:35.636Z,95791.13
2023-09-08T11:47:11.753Z,95791.75
2023-09-08T11:49:44.897Z,95784.25
2023-09-08T11:52:16.584Z,95790.03
2023-09-08T11:55:04.064Z,95794.31
2023-09-08T11:57:38.870Z,95791.00
2023-09-08T12:00:15.677Z,95786.88
2023-09-08T12:02:47.356Z,95777.50
2023-09-08T12:05:25.627Z,95777.09
2023-09-08T12:07:59.040Z,95773.84
2023-09-08T12:10:30.581Z,95775.66
2023-09-08T12:13:02.184Z,95771.81
2023-09-08T12:15:38.566Z,95773.56
2023-09-08T12:18:16.716Z,95768.56
2023-09-08T12:21:08.133Z,95768.66
2023-09-08T12:23:50.478Z,95772.88
2023-09-08T12:26:22.708Z,95766.25
2023-09-08T12:28:54.346Z,95767.59
2023-09-08T12:31:26.060Z,95766.25
2023-09-08T12:33:57.865Z,95765.69
2023-09-08T12:36:29.433Z,95764.13
2023-09-08T12:39:00.959Z,95761.38
2023-09-08T12:41:32.460Z,95768.09
2023-09-08T12:44:04.239Z,95775.41
2023-09-08T12:46:36.702Z,95772.41
2023-09-08T12:49:10.211Z,95763.88
2023-09-08T12:51:42.896Z,95762.53
2023-09-08T12:54:14.483Z,95767.66
2023-09-08T12:56:46.055Z,95760.66
2023-09-08T12:59:17.683Z,95761.94
2023-09-08T13:01:49.106Z,95761.34
2023-09-08T13:04:20.755Z,95760.06
2023-09-08T13:06:52.133Z,95760.84
2023-09-08T13:09:23.807Z,95762.84
2023-09-08T13:11:55.133Z,95756.19
2023-09-08T13:14:26.705Z,95751.84
2023-09-08T13:16:58.098Z,95751.44
2023-09-08T13:19:30.417Z,95750.69
2023-09-08T13:22:02.002Z,95752.28
2023-09-08T13:24:34.943Z,95754.59
2023-09-08T13:27:06.630Z,95750.25
2023-09-08T13:29:38.166Z,95749.09
2023-09-08T13:32:09.848Z,95748.91
2023-09-08T13:34:41.543Z,95739.66
2023-09-08T13:37:14.137Z,95740.69
2023-09-08T13:39:45.903Z,95738.53
2023-09-08T13:42:17.657Z,95731.72
2023-09-08T13:44:49.364Z,95730.38
2023-09-08T13:47:21.263Z,95726.63
2023-09-08T13:49:55.694Z,95732.06
2023-09-08T13:52:31.976Z,95714.50
2023-09-08T13:55:30.299Z,95724.84
2023-09-08T13:57:56.626Z,95711.53
2023-09-08T14:03:06.436Z,95708.19
2023-09-08T14:05:43.407Z,95705.22
2023-09-08T14:08:21.288Z,95704.84
2023-09-08T14:13:34.759Z,95701.09
2023-09-08T14:16:06.731Z,95696.19
2023-09-08T14:18:38.334Z,95702.16
2023-09-08T14:21:09.893Z,95711.25
2023-09-08T14:23:42.539Z,95701.69
2023-09-08T14:26:14.177Z,95702.75
2023-09-08T14:28:45.762Z,95700.31
2023-09-08T14:31:17.353Z,95701.63
2023-09-08T14:33:49.094Z,95691.28
2023-09-08T14:36:20.851Z,95702.97
2023-09-08T14:38:52.450Z,95692.19
2023-09-08T14:41:24.076Z,95690.91
2023-09-08T14:43:55.734Z,95689.44
2023-09-08T14:46:27.409Z,95693.09
2023-09-08T14:48:59.027Z,95687.03
2023-09-08T14:51:30.581Z,95693.09
2023-09-08T14:54:02.246Z,95695.31
2023-09-08T14:56:33.797Z,95691.81
2023-09-08T14:59:05.744Z,95686.47
2023-09-08T15:01:39.770Z,95683.94
2023-09-08T15:04:12.294Z,95694.03
2023-09-08T15:06:44.000Z,95698.28
2023-09-08T15:09:15.738Z,95687.09
2023-09-08T15:11:47.288Z,95687.72
2023-09-08T15:14:18.860Z,95684.75
2023-09-08T15:16:50.486Z,95699.09
2023-09-08T15:19:22.053Z,95685.41
2023-09-08T15:21:53.619Z,95687.16
2023-09-08T15:24:25.482Z,95691.94
2023-09-08T15:26:58.251Z,95681.66
2023-09-08T15:29:29.833Z,95681.56
2023-09-08T15:32:01.710Z,95684.59
2023-09-08T15:34:33.530Z,95682.88
2023-09-08T15:37:05.114Z,95688.06
2023-09-08T15:39:36.730Z,95683.19
2023-09-08T15:42:08.321Z,95687.28
2023-09-08T15:44:39.860Z,95681.75
2023-09-08T15:47:11.378Z,95677.81
2023-09-08T15:49:43.090Z,95679.84
2023-09-08T15:52:16.765Z,95677.06
2023-09-08T15:54:48.763Z,95682.38
2023-09-08T15:57:20.470Z,95671.25
2023-09-08T15:59:52.028Z,95680.22
2023-09-08T16:02:23.671Z,95678.31
2023-09-08T16:04:57.867Z,95675.41
2023-09-08T16:07:29.527Z,95672.03
2023-09-08T16:10:01.135Z,95666.53
2023-09-08T16:12:32.801Z,95669.25
2023-09-08T16:15:05.049Z,95675.34
2023-09-08T16:17:36.637Z,95678.75
2023-09-08T16:20:08.904Z,95675.44
2023-09-08T16:22:40.546Z,95679.13
2023-09-08T16:25:12.119Z,95675.69
2023-09-08T16:27:43.992Z,95675.75
2023-09-08T16:30:15.646Z,95680.13
2023-09-08T16:32:47.580Z,95676.81
2023-09-08T16:35:20.227Z,95679.84
2023-09-08T16:37:51.795Z,95685.84
2023-09-08T16:40:23.762Z,95683.56
2023-09-08T16:42:56.203Z,95687.16
2023-09-08T16:45:27.777Z,95686.69
2023-09-08T16:47:59.442Z,95687.59
2023-09-08T16:50:31.109Z,95691.66
2023-09-08T16:53:02.710Z,95701.09
2023-09-08T16:55:34.317Z,95695.72
2023-09-08T16:58:05.960Z,95690.69
2023-09-08T17:00:37.546Z,95695.38
2023-09-08T17:03:09.256Z,95698.91
2023-09-08T17:05:43.658Z,95696.50
2023-09-08T17:08:16.749Z,95697.25
2023-09-08T17:10:49.301Z,95698.31
2023-09-08T17:13:20.859Z,95695.84
2023-09-08T17:15:52.328Z,95692.81
2023-09-08T17:18:25.977Z,95702.56
2023-09-08T17:20:57.799Z,95706.22
2023-09-08T17:23:29.418Z,95704.94
2023-09-08T17:26:02.182Z,95702.94
2023-09-08T17:28:35.786Z,95702.25
2023-09-08T17:31:07.859Z,95699.75
2023-09-08T17:33:39.708Z,95708.19
2023-09-08T17:36:11.640Z,95707.34
2023-09-08T17:38:43.151Z,95711.81
2023-09-08T17:41:14.744Z,95705.31
2023-09-08T17:43:47.570Z,95712.81
2023-09-08T17:46:19.333Z,95709.84
2023-09-08T17:48:51.075Z,95710.31
2023-09-08T17:51:23.900Z,95726.00
2023-09-08T17:53:55.323Z,95716.75
2023-09-08T17:56:26.915Z,95724.50
2023-09-08T17:58:58.482Z,95721.03
2023-09-08T18:01:30.185Z,95730.00
2023-09-08T18:04:01.749Z,95722.72
2023-09-08T18:06:33.518Z,95726.19
2023-09-08T18:09:05.198Z,95732.44
2023-09-08T18:11:36.852Z,95727.25
2023-09-08T18:14:08.449Z,95730.75
2023-09-08T18:16:40.139Z,95724.38
2023-09-08T18:19:12.458Z,95725.91
2023-09-08T18:21:44.077Z,95729.06
2023-09-08T18:24:15.654Z,95732.09
2023-09-08T18:26:47.261Z,95727.34
2023-09-08T18:29:20.213Z,95731.41
2023-09-08T18:31:52.009Z,95725.78
2023-09-08T18:34:24.878Z,95735.47
2023-09-08T18:36:56.461Z,95735.75
2023-09-08T18:39:28.025Z,95722.41
2023-09-08T18:41:59.897Z,95722.69
2023-09-08T18:44:31.373Z,95728.56
2023-09-08T18:47:04.198Z,95729.56
2023-09-08T18:49:35.766Z,95731.34
2023-09-08T18:52:07.386Z,95724.97
2023-09-08T18:54:40.790Z,95736.56
2023-09-08T18:57:12.688Z,95732.44
2023-09-08T18:59:44.267Z,95732.41
2023-09-08T19:02:15.953Z,95730.25
2023-09-08T19:04:47.924Z,95731.84
2023-09-08T19:07:19.582Z,95731.31
2023-09-08T19:09:51.195Z,95729.63
2023-09-08T19:12:22.792Z,95731.41
2023-09-08T19:14:56.086Z,95732.31
2023-09-08T19:17:27.708Z,95734.81
2023-09-08T19:19:59.456Z,95737.44
2023-09-08T19:22:30.900Z,95733.88
2023-09-08T19:25:02.553Z,95732.16
2023-09-08T19:27:34.329Z,95741.97
2023-09-08T19:30:06.997Z,95737.22
2023-09-08T19:32:38.782Z,95737.31
2023-09-08T19:35:10.456Z,95746.16
2023-09-08T19:37:42.115Z,95749.75
2023-09-08T19:40:14.642Z,95742.94
2023-09-08T19:42:46.264Z,95738.34
2023-09-08T19:45:17.843Z,95737.81
2023-09-08T19:47:49.762Z,95735.97
2023-09-08T19:50:21.490Z,95740.03
2023-09-08T19:52:53.131Z,95739.00
2023-09-08T19:55:24.674Z,95748.06
2023-09-08T19:57:56.378Z,95743.28
2023-09-08T20:00:27.979Z,95742.59
2023-09-08T20:02:59.654Z,95741.97
2023-09-08T20:05:31.251Z,95743.38
2023-09-08T20:08:03.140Z,95743.81
2023-09-08T20:10:34.540Z,95740.13
2023-09-08T20:13:06.226Z,95745.22
2023-09-08T20:15:37.776Z,95742.28
2023-09-08T20:18:09.585Z,95740.09
2023-09-08T20:20:41.816Z,95743.69
2023-09-08T20:23:14.728Z,95740.09
2023-09-08T20:25:46.350Z,95734.41
2023-09-08T20:28:17.950Z,95731.53
2023-09-08T20:31:01.562Z,95738.94
2023-09-08T20:33:41.018Z,95735.78
2023-09-08T20:36:13.335Z,95735.53
2023-09-08T20:38:45.213Z,95726.31
2023-09-08T20:41:16.936Z,95735.06
2023-09-08T20:43:48.679Z,95740.69
2023-09-08T20:46:20.269Z,95739.28
2023-09-08T20:48:51.974Z,95746.31
2023-09-08T20:51:24.275Z,95745.00
2023-09-08T20:53:56.273Z,95737.69
2023-09-08T20:56:27.646Z,95747.91
2023-09-08T20:58:59.201Z,95743.31
2023-09-08T21:01:32.767Z,95745.63
2023-09-08T21:04:04.899Z,95745.03
2023-09-08T21:06:37.019Z,95736.88
2023-09-08T21:09:08.825Z,95745.03
2023-09-08T21:11:40.441Z,95739.53
2023-09-08T21:14:13.060Z,95736.88
2023-09-08T21:16:45.013Z,95744.44
2023-09-08T21:19:20.029Z,95744.88
2023-09-08T21:21:51.635Z,95743.00
2023-09-08T21:24:23.581Z,95741.13
2023-09-08T21:26:55.199Z,95748.84
2023-09-08T21:29:26.798Z,95750.13
2023-09-08T21:31:58.428Z,95744.38
2023-09-08T21:34:30.756Z,95742.81
2023-09-08T21:37:03.769Z,95746.50
2023-09-08T21:39:36.584Z,95747.00
2023-09-08T21:42:08.639Z,95744.28
2023-09-08T21:44:40.320Z,95748.94
2023-09-08T21:47:11.894Z,95743.69
2023-09-08T21:49:43.638Z,95738.78
2023-09-08T21:52:21.473Z,95735.81
2023-09-08T21:55:04.308Z,95736.22
2023-09-08T21:57:35.915Z,95734.78
2023-09-08T22:00:12.065Z,95747.31
2023-09-08T22:02:44.066Z,95742.81
2023-09-08T22:05:16.919Z,95744.84
2023-09-08T22:07:50.651Z,95739.16
2023-09-08T22:10:22.994Z,95742.00
2023-09-08T22:12:57.102Z,95733.25
2023-09-08T22:15:28.983Z,95734.94
2023-09-08T22:18:00.591Z,95733.91
2023-09-08T22:20:32.178Z,95735.50
2023-09-08T22:23:03.945Z,95732.88
2023-09-08T22:25:35.518Z,95737.97
2023-09-08T22:28:07.650Z,95734.50
2023-09-08T22:30:39.303Z,95727.59
2023-09-08T22:33:11.061Z,95726.09
2023-09-08T22:35:42.863Z,95732.34
2023-09-08T22:38:15.805Z,95727.41
2023-09-08T22:40:47.399Z,95723.53
2023-09-08T22:43:18.955Z,95730.53
2023-09-08T22:45:50.884Z,95728.31
2023-09-08T22:48:23.282Z,95731.19
2023-09-08T22:50:54.876Z,95725.00
2023-09-08T22:53:26.504Z,95725.81
2023-09-08T22:55:58.330Z,95727.56
2023-09-08T22:58:42.914Z,95720.69
2023-09-08T23:01:14.637Z,95730.34
2023-09-08T23:03:46.286Z,95731.22
2023-09-08T23:06:19.477Z,95723.13
2023-09-08T23:08:51.263Z,95725.41
2023-09-08T23:11:22.943Z,95727.75
2023-09-08T23:13:54.516Z,95721.56
2023-09-08T23:16:26.177Z,95722.34
2023-09-08T23:18:58.929Z,95722.75
2023-09-08T23:21:30.484Z,95718.16
2023-09-08T23:24:02.062Z,95721.28
2023-09-08T23:26:33.906Z,95721.34
2023-09-08T23:29:05.473Z,95717.88
2023-09-08T23:31:37.125Z,95711.41
2023-09-08T23:34:13.408Z,95718.91
2023-09-08T23:36:45.030Z,95718.13
2023-09-08T23:39:16.587Z,95717.78
2023-09-08T23:41:48.174Z,95716.69
2023-09-08T23:44:20.771Z,95718.41
2023-09-08T23:46:53.079Z,95716.84
2023-09-08T23:49:24.589Z,95711.53
2023-09-08T23:51:56.214Z,95723.03
2023-09-08T23:54:28.033Z,95708.75
2023-09-08T23:57:00.729Z,95704.59
2023-09-08T23:59:32.419Z,95697.59
